Time,TemperatureF,DewpointF,PressureIn,WindDirection,WindDirectionDegrees,WindSpeedMPH,WindSpeedGustMPH,Humidity,HourlyPrecipIn,Conditions,Clouds,dailyrainin,SoftwareType,DateUTC
2013-09-30 00:09:00,47.7,47.2,29.97,NW,315,0.0,-999.0,98,-99.99,,,0.00,Acu-Link.com,2013-09-30 04:09:00,
2013-09-30 00:24:00,47.7,47.2,29.97,North,0,0.0,-999.0,98,-99.99,,,0.00,Acu-Link.com,2013-09-30 04:24:00,
2013-09-30 00:40:00,48.6,48.1,29.97,WNW,292,0.0,-999.0,98,-99.99,,,0.00,Acu-Link.com,2013-09-30 04:40:00,
2013-09-30 00:55:00,48.2,47.7,29.97,South,180,0.0,-999.0,98,-99.99,,,0.00,Acu-Link.com,2013-09-30 04:55:00,
2013-09-30 01:11:00,47.7,47.2,29.97,ESE,112,3.7,-999.0,98,-99.99,,,0.00,Acu-Link.com,2013-09-30 05:11:00,
2013-09-30 01:26:00,47.7,47.2,29.97,ESE,112,4.2,-999.0,98,-99.99,,,0.00,Acu-Link.com,2013-09-30 05:26:00,
2013-09-30 01:42:00,47.5,47.0,29.98,NNW,337,0.0,-999.0,98,-99.99,,,0.00,Acu-Link.com,2013-09-30 05:42:00,
2013-09-30 01:58:00,47.3,46.8,29.98,SSE,157,0.0,-999.0,98,-99.99,,,0.00,Acu-Link.com,2013-09-30 05:58:00,
2013-09-30 02:13:00,47.1,46.6,29.98,ESE,112,1.1,-999.0,98,-99.99,,,0.00,Acu-Link.com,2013-09-30 06:13:00,
2013-09-30 02:29:00,47.3,46.8,29.97,SE,135,0.0,-999.0,98,-99.99,,,0.00,Acu-Link.com,2013-09-30 06:29:00,
2013-09-30 02:44:00,47.1,46.6,29.97,ESE,112,1.7,-999.0,98,-99.99,,,0.00,Acu-Link.com,2013-09-30 06:44:00,
2013-09-30 03:00:00,47.3,46.8,29.97,ESE,112,2.2,-999.0,98,-99.99,,,0.00,Acu-Link.com,2013-09-30 07:00:00,
2013-09-30 03:15:00,47.3,46.8,29.97,SW,225,0.0,-999.0,98,-99.99,,,0.00,Acu-Link.com,2013-09-30 07:15:00,
2013-09-30 03:31:00,47.3,46.8,29.96,East,90,0.0,-999.0,98,-99.99,,,0.00,Acu-Link.com,2013-09-30 07:31:00,
2013-09-30 03:46:00,47.1,46.6,29.95,SSE,157,0.0,-999.0,98,-99.99,,,0.00,Acu-Link.com,2013-09-30 07:46:00,
2013-09-30 04:01:00,46.6,46.1,29.96,West,270,0.0,-999.0,98,-99.99,,,0.00,Acu-Link.com,2013-09-30 08:01:00,
2013-09-30 04:17:00,46.6,46.1,29.96,SW,225,0.0,-999.0,98,-99.99,,,0.00,Acu-Link.com,2013-09-30 08:17:00,
2013-09-30 04:32:00,46.9,46.4,29.96,ESE,112,0.0,-999.0,98,-99.99,,,0.00,Acu-Link.com,2013-09-30 08:32:00,
2013-09-30 04:47:00,46.8,46.3,29.96,NE,45,0.0,-999.0,98,-99.99,,,0.00,Acu-Link.com,2013-09-30 08:47:00,
2013-09-30 05:02:00,46.9,46.4,29.96,SE,135,0.0,-999.0,98,-99.99,,,0.00,Acu-Link.com,2013-09-30 09:02:00,
2013-09-30 05:17:00,47.3,46.8,29.96,SE,135,1.7,-999.0,98,-99.99,,,0.00,Acu-Link.com,2013-09-30 09:17:00,
2013-09-30 05:33:00,47.3,46.8,29.97,SE,135,2.7,-999.0,98,-99.99,,,0.00,Acu-Link.com,2013-09-30 09:33:00,
2013-09-30 05:48:00,47.5,47.0,29.97,SE,135,0.0,-999.0,98,-99.99,,,0.00,Acu-Link.com,2013-09-30 09:48:00,
2013-09-30 06:04:00,47.7,47.2,29.97,SSW,202,0.0,-999.0,98,-99.99,,,0.00,Acu-Link.com,2013-09-30 10:04:00,
2013-09-30 06:20:00,47.3,46.8,29.97,South,180,0.0,-999.0,98,-99.99,,,0.00,Acu-Link.com,2013-09-30 10:20:00,
2013-09-30 06:36:00,46.9,46.4,29.97,West,270,0.0,-999.0,98,-99.99,,,0.00,Acu-Link.com,2013-09-30 10:36:00,
2013-09-30 06:51:00,46.9,46.4,29.97,SSW,202,0.0,-999.0,98,-99.99,,,0.00,Acu-Link.com,2013-09-30 10:51:00,
2013-09-30 07:06:00,47.1,46.6,29.97,SE,135,0.0,-999.0,98,-99.99,,,0.00,Acu-Link.com,2013-09-30 11:06:00,
2013-09-30 07:23:00,47.1,46.6,29.97,ESE,112,0.0,-999.0,98,-99.99,,,0.00,Acu-Link.com,2013-09-30 11:23:00,
2013-09-30 07:38:00,46.9,46.4,29.97,WNW,292,0.0,-999.0,98,-99.99,,,0.00,Acu-Link.com,2013-09-30 11:38:00,
2013-09-30 07:54:00,46.8,46.3,29.98,ESE,112,1.1,-999.0,98,-99.99,,,0.00,Acu-Link.com,2013-09-30 11:54:00,
2013-09-30 08:10:00,46.4,45.9,29.99,SE,135,3.2,-999.0,98,-99.99,,,0.00,Acu-Link.com,2013-09-30 12:10:00,
2013-09-30 08:25:00,47.5,47.0,29.99,North,0,2.2,-999.0,98,-99.99,,,0.00,Acu-Link.com,2013-09-30 12:25:00,
2013-09-30 08:40:00,48.2,47.7,29.99,SW,225,0.0,-999.0,98,-99.99,,,0.00,Acu-Link.com,2013-09-30 12:40:00,
2013-09-30 08:56:00,49.3,48.8,29.99,West,270,0.0,-999.0,98,-99.99,,,0.00,Acu-Link.com,2013-09-30 12:56:00,
2013-09-30 09:12:00,50.2,49.7,29.99,NNW,337,0.0,-999.0,98,-99.99,,,0.00,Acu-Link.com,2013-09-30 13:12:00,
2013-09-30 09:27:00,51.6,51.1,29.99,WSW,247,0.0,-999.0,98,-99.99,,,0.00,Acu-Link.com,2013-09-30 13:27:00,
2013-09-30 09:43:00,53.4,52.8,30.00,SSE,157,0.0,-999.0,98,-99.99,,,0.00,Acu-Link.com,2013-09-30 13:43:00,
2013-09-30 09:58:00,54.7,54.1,29.99,West,270,2.2,-999.0,98,-99.99,,,0.00,Acu-Link.com,2013-09-30 13:58:00,
2013-09-30 10:14:00,56.5,55.9,29.99,NW,315,5.8,-999.0,98,-99.99,,,0.00,Acu-Link.com,2013-09-30 14:14:00,
2013-09-30 10:29:00,61.2,60.6,29.99,SW,225,2.7,-999.0,98,-99.99,,,0.00,Acu-Link.com,2013-09-30 14:29:00,
2013-09-30 10:45:00,61.2,60.6,29.99,West,270,2.2,-999.0,98,-99.99,,,0.00,Acu-Link.com,2013-09-30 14:45:00,
2013-09-30 11:00:00,62.8,62.2,29.98,NW,315,1.7,-999.0,98,-99.99,,,0.00,Acu-Link.com,2013-09-30 15:00:00,
2013-09-30 11:16:00,65.7,65.1,29.97,NNW,337,2.2,-999.0,98,-99.99,,,0.00,Acu-Link.com,2013-09-30 15:16:00,
2013-09-30 11:31:00,66.9,61.6,29.97,East,90,1.1,-999.0,83,-99.99,,,0.00,Acu-Link.com,2013-09-30 15:31:00,
2013-09-30 11:47:00,70.7,57.5,29.96,SW,225,1.1,-999.0,63,-99.99,,,0.00,Acu-Link.com,2013-09-30 15:47:00,
2013-09-30 12:02:00,70.3,51.8,29.96,SSW,202,1.7,-999.0,52,-99.99,,,0.00,Acu-Link.com,2013-09-30 16:02:00,
2013-09-30 12:17:00,71.8,46.2,29.95,SW,225,5.8,-999.0,40,-99.99,,,0.00,Acu-Link.com,2013-09-30 16:17:00,
2013-09-30 12:32:00,72.5,45.4,29.95,SW,225,2.2,-999.0,38,-99.99,,,0.00,Acu-Link.com,2013-09-30 16:32:00,
2013-09-30 12:47:00,71.4,40.8,29.94,West,270,1.7,-999.0,33,-99.99,,,0.00,Acu-Link.com,2013-09-30 16:47:00,
2013-09-30 13:02:00,73.4,37.4,29.94,NW,315,3.7,-999.0,27,-99.99,,,0.00,Acu-Link.com,2013-09-30 17:02:00,
2013-09-30 13:18:00,74.8,32.2,29.93,SSW,202,3.2,-999.0,21,-99.99,,,0.00,Acu-Link.com,2013-09-30 17:18:00,
2013-09-30 13:34:00,74.1,29.2,29.93,West,270,4.7,-999.0,19,-99.99,,,0.00,Acu-Link.com,2013-09-30 17:34:00,
2013-09-30 13:49:00,73.2,28.5,29.92,WNW,292,2.7,-999.0,19,-99.99,,,0.00,Acu-Link.com,2013-09-30 17:49:00,
2013-09-30 14:05:00,73.4,33.3,29.92,West,270,6.3,-999.0,23,-99.99,,,0.00,Acu-Link.com,2013-09-30 18:05:00,
2013-09-30 14:20:00,73.4,35.4,29.92,WNW,292,3.7,-999.0,25,-99.99,,,0.00,Acu-Link.com,2013-09-30 18:20:00,
2013-09-30 14:35:00,73.4,38.3,29.91,SW,225,4.2,-999.0,28,-99.99,,,0.00,Acu-Link.com,2013-09-30 18:35:00,
2013-09-30 14:51:00,72.1,42.2,29.91,West,270,2.7,-999.0,34,-99.99,,,0.00,Acu-Link.com,2013-09-30 18:51:00,
2013-09-30 15:06:00,73.8,43.7,29.91,West,270,1.7,-999.0,34,-99.99,,,0.00,Acu-Link.com,2013-09-30 19:06:00,
2013-09-30 15:21:00,72.3,45.9,29.90,West,270,4.2,-999.0,39,-99.99,,,0.00,Acu-Link.com,2013-09-30 19:21:00,
2013-09-30 15:37:00,73.2,45.4,29.90,WNW,292,1.1,-999.0,37,-99.99,,,0.00,Acu-Link.com,2013-09-30 19:37:00,
2013-09-30 15:52:00,73.4,49.5,29.90,SW,225,2.7,-999.0,43,-99.99,,,0.00,Acu-Link.com,2013-09-30 19:52:00,
2013-09-30 16:08:00,71.8,52.1,29.90,West,270,3.2,-999.0,50,-99.99,,,0.00,Acu-Link.com,2013-09-30 20:08:00,
2013-09-30 16:23:00,70.3,58.0,29.90,WSW,247,4.2,-999.0,65,-99.99,,,0.00,Acu-Link.com,2013-09-30 20:23:00,
2013-09-30 16:38:00,69.4,61.9,29.90,WSW,247,4.7,-999.0,77,-99.99,,,0.00,Acu-Link.com,2013-09-30 20:38:00,
2013-09-30 16:54:00,68.4,67.8,29.91,WSW,247,0.0,-999.0,98,-99.99,,,0.00,Acu-Link.com,2013-09-30 20:54:00,
2013-09-30 17:09:00,67.6,67.0,29.90,West,270,1.7,-999.0,98,-99.99,,,0.00,Acu-Link.com,2013-09-30 21:09:00,
2013-09-30 17:25:00,67.6,67.0,29.90,West,270,0.0,-999.0,98,-99.99,,,0.00,Acu-Link.com,2013-09-30 21:25:00,
2013-09-30 17:40:00,68.2,67.6,29.90,SSW,202,0.0,-999.0,98,-99.99,,,0.00,Acu-Link.com,2013-09-30 21:40:00,
2013-09-30 17:56:00,67.3,66.7,29.91,NE,45,0.0,-999.0,98,-99.99,,,0.00,Acu-Link.com,2013-09-30 21:56:00,
2013-09-30 18:12:00,68.9,68.3,29.91,SW,225,0.0,-999.0,98,-99.99,,,0.00,Acu-Link.com,2013-09-30 22:12:00,
2013-09-30 18:27:00,68.9,68.3,29.91,NW,315,0.0,-999.0,98,-99.99,,,0.00,Acu-Link.com,2013-09-30 22:27:00,
2013-09-30 18:42:00,67.1,66.5,29.91,ENE,67,0.0,-999.0,98,-99.99,,,0.00,Acu-Link.com,2013-09-30 22:42:00,
2013-09-30 18:58:00,64.8,64.2,29.91,NE,45,0.0,-999.0,98,-99.99,,,0.00,Acu-Link.com,2013-09-30 22:58:00,
2013-09-30 19:13:00,63.3,62.7,29.92,SSW,202,0.0,-999.0,98,-99.99,,,0.00,Acu-Link.com,2013-09-30 23:13:00,
2013-09-30 19:28:00,62.1,61.5,29.92,SE,135,0.0,-999.0,98,-99.99,,,0.00,Acu-Link.com,2013-09-30 23:28:00,
2013-09-30 19:43:00,61.3,60.7,29.92,NE,45,0.0,-999.0,98,-99.99,,,0.00,Acu-Link.com,2013-09-30 23:43:00,
2013-09-30 19:59:00,60.4,59.8,29.93,SSW,202,0.0,-999.0,98,-99.99,,,0.00,Acu-Link.com,2013-09-30 23:59:00,
2013-09-30 20:14:00,60.3,59.7,29.93,SW,225,0.0,-999.0,98,-99.99,,,0.00,Acu-Link.com,2013-10-01 00:14:00,
2013-09-30 20:29:00,59.7,59.1,29.94,South,180,0.0,-999.0,98,-99.99,,,0.00,Acu-Link.com,2013-10-01 00:29:00,
2013-09-30 20:44:00,58.6,58.0,29.94,NNE,22,0.0,-999.0,98,-99.99,,,0.00,Acu-Link.com,2013-10-01 00:44:00,
2013-09-30 20:59:00,57.9,57.3,29.94,North,0,0.0,-999.0,98,-99.99,,,0.00,Acu-Link.com,2013-10-01 00:59:00,
2013-09-30 21:15:00,57.7,57.1,29.94,SSW,202,0.0,-999.0,98,-99.99,,,0.00,Acu-Link.com,2013-10-01 01:15:00,
2013-09-30 21:30:00,57.4,56.8,29.94,East,90,0.0,-999.0,98,-99.99,,,0.00,Acu-Link.com,2013-10-01 01:30:00,
2013-09-30 21:46:00,57.4,56.8,29.94,ESE,112,0.0,-999.0,98,-99.99,,,0.00,Acu-Link.com,2013-10-01 01:46:00,
2013-09-30 22:02:00,57.2,56.6,29.94,ESE,112,3.2,-999.0,98,-99.99,,,0.00,Acu-Link.com,2013-10-01 02:02:00,
2013-09-30 22:17:00,57.4,56.8,29.95,ESE,112,0.0,-999.0,98,-99.99,,,0.00,Acu-Link.com,2013-10-01 02:17:00,
2013-09-30 22:32:00,57.0,56.4,29.94,SSW,202,1.7,-999.0,98,-99.99,,,0.00,Acu-Link.com,2013-10-01 02:32:00,
2013-09-30 22:48:00,57.2,56.6,29.95,WSW,247,0.0,-999.0,98,-99.99,,,0.00,Acu-Link.com,2013-10-01 02:48:00,
2013-09-30 23:04:00,57.2,56.6,29.94,SSW,202,0.0,-999.0,98,-99.99,,,0.00,Acu-Link.com,2013-10-01 03:04:00,
2013-09-30 23:19:00,56.8,56.2,29.94,SSW,202,0.0,-999.0,98,-99.99,,,0.00,Acu-Link.com,2013-10-01 03:19:00,
2013-09-30 23:35:00,56.8,56.2,29.94,SSE,157,0.0,-999.0,98,-99.99,,,0.00,Acu-Link.com,2013-10-01 03:35:00,
2013-09-30 23:50:00,56.1,55.5,29.94,SW,225,0.0,-999.0,98,-99.99,,,0.00,Acu-Link.com,2013-10-01 03:50:00,